createdAt,value
2019-01-13T00:01:54.336Z,98932.00
2019-01-13T00:03:59.437Z,98916.00
2019-01-13T00:06:04.599Z,98917.00
2019-01-13T00:08:09.722Z,98921.00
2019-01-13T00:10:14.691Z,98935.00
2019-01-13T00:12:19.640Z,98928.00
2019-01-13T00:14:24.616Z,98917.00
2019-01-13T00:16:29.785Z,98929.00
2019-01-13T00:18:34.747Z,98921.00
2019-01-13T00:20:39.792Z,98924.00
2019-01-13T00:22:44.849Z,98918.00
2019-01-13T00:24:49.915Z,98932.00
2019-01-13T00:26:54.855Z,98936.00
2019-01-13T00:28:59.894Z,98927.00
2019-01-13T00:31:05.079Z,98916.00
2019-01-13T00:33:10.240Z,98914.00
2019-01-13T00:35:16.600Z,98915.00
2019-01-13T00:37:21.725Z,98919.00
2019-01-13T00:39:26.781Z,98913.00
2019-01-13T00:41:31.836Z,98917.00
2019-01-13T00:43:37.223Z,98919.00
2019-01-13T00:45:42.316Z,98922.00
2019-01-13T00:47:47.397Z,98929.00
2019-01-13T00:49:52.422Z,98932.00
2019-01-13T00:51:57.483Z,98924.00
2019-01-13T00:54:03.128Z,98933.00
2019-01-13T00:56:08.173Z,98924.00
2019-01-13T00:58:13.163Z,98913.00
2019-01-13T01:00:26.419Z,98921.00
2019-01-13T01:02:28.372Z,98907.00
2019-01-13T01:04:33.417Z,98908.00
2019-01-13T01:06:38.619Z,98893.00
2019-01-13T01:08:43.736Z,98901.00
2019-01-13T01:10:48.770Z,98894.00
2019-01-13T01:12:53.899Z,98896.00
2019-01-13T01:14:59.490Z,98907.00
2019-01-13T01:17:04.606Z,98882.00
2019-01-13T01:19:09.631Z,98891.00
2019-01-13T01:21:14.755Z,98886.00
2019-01-13T01:23:20.100Z,98887.00
2019-01-13T01:25:24.990Z,98888.00
2019-01-13T01:27:29.973Z,98879.00
2019-01-13T01:29:34.961Z,98878.00
2019-01-13T01:31:40.002Z,98883.00
2019-01-13T01:33:45.261Z,98885.00
2019-01-13T01:35:50.511Z,98888.00
2019-01-13T01:37:55.542Z,98890.00
2019-01-13T01:40:00.588Z,98874.00
2019-01-13T01:42:05.707Z,98875.00
2019-01-13T01:44:10.933Z,98874.00
2019-01-13T01:46:16.047Z,98866.00
2019-01-13T01:48:21.103Z,98857.00
2019-01-13T01:50:26.308Z,98859.00
2019-01-13T01:52:31.253Z,98863.00
2019-01-13T01:54:36.505Z,98844.00
2019-01-13T01:56:41.554Z,98854.00
2019-01-13T01:58:46.570Z,98854.00
2019-01-13T02:00:53.915Z,98860.00
2019-01-13T02:03:02.727Z,98857.00
2019-01-13T02:05:08.271Z,98855.00
2019-01-13T02:07:14.205Z,98857.00
2019-01-13T02:09:20.151Z,98865.00
2019-01-13T02:11:25.332Z,98854.00
2019-01-13T02:13:30.775Z,98853.00
2019-01-13T02:15:35.727Z,98859.00
2019-01-13T02:17:40.845Z,98847.00
2019-01-13T02:19:46.296Z,98841.00
2019-01-13T02:21:51.344Z,98858.00
2019-01-13T02:23:56.341Z,98832.00
2019-01-13T02:26:01.409Z,98819.00
2019-01-13T02:28:06.914Z,98826.00
2019-01-13T02:30:16.110Z,98817.00
2019-01-13T02:32:21.181Z,98822.00
2019-01-13T02:34:26.079Z,98819.00
2019-01-13T02:36:31.126Z,98822.00
2019-01-13T02:38:36.100Z,98813.00
2019-01-13T02:40:41.152Z,98794.00
2019-01-13T02:42:46.477Z,98794.00
2019-01-13T02:44:51.397Z,98783.00
2019-01-13T02:46:56.379Z,98793.00
2019-01-13T02:49:01.727Z,98786.00
2019-01-13T02:51:06.764Z,98803.00
2019-01-13T02:53:11.753Z,98816.00
2019-01-13T02:55:16.721Z,98820.00
2019-01-13T02:57:21.705Z,98803.00
2019-01-13T02:59:26.740Z,98803.00
2019-01-13T03:01:34.004Z,98798.00
2019-01-13T03:03:39.105Z,98794.00
2019-01-13T03:05:44.146Z,98807.00
2019-01-13T03:07:49.347Z,98797.00
2019-01-13T03:09:54.460Z,98812.00
2019-01-13T03:11:59.428Z,98806.00
2019-01-13T03:14:04.882Z,98817.00
2019-01-13T03:16:09.928Z,98823.00
2019-01-13T03:18:14.979Z,98822.00
2019-01-13T03:20:20.466Z,98821.00
2019-01-13T03:22:25.527Z,98826.00
2019-01-13T03:24:30.490Z,98827.00
2019-01-13T03:26:35.576Z,98822.00
2019-01-13T03:28:40.535Z,98815.00
2019-01-13T03:30:45.598Z,98818.00
2019-01-13T03:32:50.820Z,98808.00
2019-01-13T03:34:55.939Z,98801.00
2019-01-13T03:37:01.000Z,98816.00
2019-01-13T03:39:09.092Z,98802.00
2019-01-13T03:41:13.973Z,98753.00
2019-01-13T03:43:18.958Z,98793.00
2019-01-13T03:45:24.347Z,98787.00
2019-01-13T03:47:29.314Z,98774.00
2019-01-13T03:49:34.657Z,98778.00
2019-01-13T03:51:39.735Z,98769.00
2019-01-13T03:53:44.877Z,98760.00
2019-01-13T03:55:49.907Z,98752.00
2019-01-13T03:57:54.933Z,98750.00
2019-01-13T03:59:59.910Z,98743.00
2019-01-13T04:02:05.265Z,98744.00
2019-01-13T04:04:10.445Z,98749.00
2019-01-13T04:06:15.593Z,98743.00
2019-01-13T04:08:20.821Z,98737.00
2019-01-13T04:10:25.859Z,98716.00
2019-01-13T04:12:31.437Z,98716.00
2019-01-13T04:14:36.580Z,98711.00
2019-01-13T04:16:42.540Z,98713.00
2019-01-13T04:18:47.510Z,98706.00
2019-01-13T04:20:52.877Z,98717.00
2019-01-13T04:22:58.077Z,98709.00
2019-01-13T04:25:03.101Z,98711.00
2019-01-13T04:27:08.089Z,98700.00
2019-01-13T04:29:13.195Z,98716.00
2019-01-13T04:31:18.210Z,98718.00
2019-01-13T04:33:23.258Z,98711.00
2019-01-13T04:35:28.279Z,98704.00
2019-01-13T04:37:33.286Z,98693.00
2019-01-13T04:39:38.344Z,98701.00
2019-01-13T04:41:43.439Z,98697.00
2019-01-13T04:43:48.421Z,98683.00
2019-01-13T04:45:53.691Z,98685.00
2019-01-13T04:47:58.706Z,98679.00
2019-01-13T04:50:05.094Z,98669.00
2019-01-13T04:52:10.529Z,98665.00
2019-01-13T04:54:15.505Z,98653.00
2019-01-13T04:56:20.450Z,98648.00
2019-01-13T04:58:25.494Z,98658.00
2019-01-13T05:00:30.967Z,98652.00
2019-01-13T05:02:36.006Z,98644.00
2019-01-13T05:04:41.142Z,98643.00
2019-01-13T05:06:46.162Z,98628.00
2019-01-13T05:08:51.274Z,98609.00
2019-01-13T05:10:56.744Z,98614.00
2019-01-13T05:13:01.615Z,98604.00
2019-01-13T05:15:07.902Z,98599.00
2019-01-13T05:17:12.795Z,98603.00
2019-01-13T05:19:17.748Z,98608.00
2019-01-13T05:21:22.735Z,98609.00
2019-01-13T05:23:27.649Z,98610.00
2019-01-13T05:25:32.626Z,98605.00
2019-01-13T05:27:37.686Z,98602.00
2019-01-13T05:29:42.647Z,98585.00
2019-01-13T05:31:47.661Z,98586.00
2019-01-13T05:33:52.544Z,98588.00
2019-01-13T05:35:57.778Z,98589.00
2019-01-13T05:38:02.690Z,98582.00
2019-01-13T05:40:08.910Z,98567.00
2019-01-13T05:42:13.940Z,98574.00
2019-01-13T05:44:19.489Z,98558.00
2019-01-13T05:46:24.498Z,98556.00
2019-01-13T05:48:29.642Z,98559.00
2019-01-13T05:50:34.683Z,98560.00
2019-01-13T05:52:40.871Z,98553.00
2019-01-13T05:54:45.845Z,98553.00
2019-01-13T05:56:50.733Z,98549.00
2019-01-13T05:58:55.761Z,98549.00
2019-01-13T06:01:00.884Z,98552.00
2019-01-13T06:03:06.022Z,98549.00
2019-01-13T06:05:11.277Z,98545.00
2019-01-13T06:07:16.228Z,98543.00
2019-01-13T06:09:21.371Z,98547.00
2019-01-13T06:11:26.599Z,98549.00
2019-01-13T06:13:31.651Z,98546.00
2019-01-13T06:15:36.636Z,98551.00
2019-01-13T06:17:42.073Z,98547.00
2019-01-13T06:19:47.097Z,98552.00
2019-01-13T06:21:52.097Z,98547.00
2019-01-13T06:23:57.058Z,98549.00
2019-01-13T06:26:01.969Z,98546.00
2019-01-13T06:28:06.959Z,98547.00
2019-01-13T06:30:16.484Z,98543.00
2019-01-13T06:32:21.412Z,98539.00
2019-01-13T06:34:26.425Z,98531.00
2019-01-13T06:36:31.491Z,98543.00
2019-01-13T06:38:36.466Z,98530.00
2019-01-13T06:40:41.417Z,98527.00
2019-01-13T06:42:46.495Z,98523.00
2019-01-13T06:44:51.518Z,98522.00
2019-01-13T06:46:56.886Z,98518.00
2019-01-13T06:49:02.248Z,98517.00
2019-01-13T06:51:07.584Z,98510.00
2019-01-13T06:53:12.538Z,98514.00
2019-01-13T06:55:17.751Z,98511.00
2019-01-13T06:57:22.738Z,98512.00
2019-01-13T06:59:27.817Z,98509.00
2019-01-13T07:01:33.290Z,98507.00
2019-01-13T07:03:38.311Z,98507.00
2019-01-13T07:05:43.204Z,98506.00
2019-01-13T07:07:48.815Z,98499.00
2019-01-13T07:09:53.688Z,98518.00
2019-01-13T07:11:58.717Z,98511.00
2019-01-13T07:14:03.896Z,98503.00
2019-01-13T07:16:08.994Z,98502.00
2019-01-13T07:18:14.088Z,98494.00
2019-01-13T07:20:21.118Z,98498.00
2019-01-13T07:22:26.150Z,98489.00
2019-01-13T07:24:31.181Z,98475.00
2019-01-13T07:26:36.572Z,98484.00
2019-01-13T07:28:41.500Z,98493.00
2019-01-13T07:30:46.369Z,98477.00
2019-01-13T07:32:51.606Z,98476.00
2019-01-13T07:34:56.550Z,98470.00
2019-01-13T07:37:01.426Z,98473.00
2019-01-13T07:39:09.234Z,98478.00
2019-01-13T07:41:14.190Z,98456.00
2019-01-13T07:43:19.694Z,98460.00
2019-01-13T07:45:27.081Z,98456.00
2019-01-13T07:47:32.052Z,98462.00
2019-01-13T07:49:38.705Z,98456.00
2019-01-13T07:51:43.740Z,98451.00
2019-01-13T07:53:49.133Z,98442.00
2019-01-13T07:55:54.453Z,98444.00
2019-01-13T07:57:59.813Z,98455.00
2019-01-13T08:00:07.958Z,98447.00
2019-01-13T08:02:17.861Z,98445.00
2019-01-13T08:04:19.978Z,98447.00
2019-01-13T08:06:25.195Z,98438.00
2019-01-13T08:08:30.194Z,98443.00
2019-01-13T08:10:35.144Z,98434.00
2019-01-13T08:12:40.257Z,98436.00
2019-01-13T08:14:45.281Z,98442.00
2019-01-13T08:16:50.159Z,98421.00
2019-01-13T08:18:55.419Z,98415.00
2019-01-13T08:21:00.516Z,98411.00
2019-01-13T08:23:06.037Z,98418.00
2019-01-13T08:25:11.146Z,98414.00
2019-01-13T08:27:16.527Z,98414.00
2019-01-13T08:29:21.495Z,98413.00
2019-01-13T08:31:26.573Z,98407.00
2019-01-13T08:33:31.489Z,98408.00
2019-01-13T08:35:36.585Z,98415.00
2019-01-13T08:37:42.314Z,98402.00
2019-01-13T08:39:47.421Z,98391.00
2019-01-13T08:41:52.714Z,98389.00
2019-01-13T08:43:58.101Z,98398.00
2019-01-13T08:46:03.241Z,98394.00
2019-01-13T08:48:08.323Z,98379.00
2019-01-13T08:50:22.065Z,98380.00
2019-01-13T08:52:27.124Z,98394.00
2019-01-13T08:54:32.230Z,98381.00
2019-01-13T08:56:37.757Z,98386.00
2019-01-13T08:58:43.673Z,98386.00
2019-01-13T09:00:48.611Z,98391.00
2019-01-13T09:02:53.697Z,98381.00
2019-01-13T09:04:58.611Z,98376.00
2019-01-13T09:07:03.653Z,98366.00
2019-01-13T09:09:10.070Z,98366.00
2019-01-13T09:11:15.165Z,98367.00
2019-01-13T09:13:20.198Z,98359.00
2019-01-13T09:15:26.615Z,98354.00
2019-01-13T09:17:31.920Z,98357.00
2019-01-13T09:19:37.330Z,98352.00
2019-01-13T09:21:42.550Z,98341.00
2019-01-13T09:23:47.586Z,98343.00
2019-01-13T09:25:52.568Z,98342.00
2019-01-13T09:27:57.780Z,98342.00
2019-01-13T09:30:02.830Z,98333.00
2019-01-13T09:32:08.257Z,98335.00
2019-01-13T09:34:13.224Z,98340.00
2019-01-13T09:36:18.176Z,98335.00
2019-01-13T09:38:23.150Z,98329.00
2019-01-13T09:40:30.824Z,98336.00
2019-01-13T09:42:35.890Z,98328.00
2019-01-13T09:44:40.858Z,98337.00
2019-01-13T09:46:46.182Z,98332.00
2019-01-13T09:48:51.243Z,98334.00
2019-01-13T09:50:56.666Z,98326.00
2019-01-13T09:53:01.955Z,98316.00
2019-01-13T09:55:08.681Z,98309.00
2019-01-13T09:57:13.792Z,98315.00
2019-01-13T09:59:18.771Z,98307.00
2019-01-13T10:01:23.805Z,98301.00
2019-01-13T10:03:29.136Z,98299.00
2019-01-13T10:05:34.210Z,98300.00
2019-01-13T10:07:39.167Z,98291.00
2019-01-13T10:09:44.132Z,98281.00
2019-01-13T10:11:49.013Z,98291.00
2019-01-13T10:13:53.922Z,98289.00
2019-01-13T10:15:59.030Z,98268.00
2019-01-13T10:18:04.262Z,98279.00
2019-01-13T10:20:11.310Z,98275.00
2019-01-13T10:22:16.254Z,98281.00
2019-01-13T10:24:21.203Z,98293.00
2019-01-13T10:26:26.471Z,98292.00
2019-01-13T10:28:31.527Z,98288.00
2019-01-13T10:30:36.645Z,98291.00
2019-01-13T10:32:41.895Z,98288.00
2019-01-13T10:34:47.069Z,98272.00
2019-01-13T10:36:52.153Z,98278.00
2019-01-13T10:38:57.242Z,98269.00
2019-01-13T10:41:02.314Z,98268.00
2019-01-13T10:43:07.404Z,98261.00
2019-01-13T10:45:13.612Z,98256.00
2019-01-13T10:47:18.877Z,98244.00
2019-01-13T10:49:24.152Z,98231.00
2019-01-13T10:51:29.138Z,98228.00
2019-01-13T10:53:34.201Z,98235.00
2019-01-13T10:55:39.355Z,98246.00
2019-01-13T10:57:44.866Z,98235.00
2019-01-13T10:59:49.835Z,98225.00
2019-01-13T11:01:54.877Z,98217.00
2019-01-13T11:03:59.938Z,98217.00
2019-01-13T11:06:04.966Z,98212.00
2019-01-13T11:08:11.727Z,98198.00
2019-01-13T11:10:17.166Z,98198.00
2019-01-13T11:12:22.190Z,98195.00
2019-01-13T11:14:27.169Z,98188.00
2019-01-13T11:16:32.273Z,98193.00
2019-01-13T11:18:37.371Z,98177.00
2019-01-13T11:20:42.482Z,98185.00
2019-01-13T11:22:47.684Z,98180.00
2019-01-13T11:24:52.983Z,98169.00
2019-01-13T11:26:57.931Z,98168.00
2019-01-13T11:29:03.089Z,98181.00
2019-01-13T11:31:08.120Z,98176.00
2019-01-13T11:33:13.136Z,98176.00
2019-01-13T11:35:18.181Z,98172.00
2019-01-13T11:37:23.295Z,98175.00
2019-01-13T11:39:28.333Z,98152.00
2019-01-13T11:41:33.470Z,98164.00
2019-01-13T11:43:38.364Z,98147.00
2019-01-13T11:45:43.535Z,98146.00
2019-01-13T11:47:48.679Z,98150.00
2019-01-13T11:49:54.009Z,98141.00
2019-01-13T11:51:59.030Z,98143.00
2019-01-13T11:54:04.012Z,98139.00
2019-01-13T11:56:09.353Z,98134.00
2019-01-13T11:58:15.792Z,98140.00
2019-01-13T12:00:31.167Z,98127.00
2019-01-13T12:02:36.286Z,98136.00
2019-01-13T12:04:41.642Z,98124.00
2019-01-13T12:06:46.921Z,98120.00
2019-01-13T12:08:51.947Z,98126.00
2019-01-13T12:10:57.653Z,98118.00
2019-01-13T12:13:02.873Z,98111.00
2019-01-13T12:15:11.475Z,98099.00
2019-01-13T12:17:17.068Z,98091.00
2019-01-13T12:19:22.092Z,98092.00
2019-01-13T12:21:27.290Z,98106.00
2019-01-13T12:23:32.345Z,98092.00
2019-01-13T12:25:37.370Z,98105.00
2019-01-13T12:27:42.538Z,98097.00
2019-01-13T12:29:47.559Z,98097.00
2019-01-13T12:31:52.509Z,98074.00
2019-01-13T12:33:57.784Z,98079.00
2019-01-13T12:36:02.978Z,98076.00
2019-01-13T12:38:08.078Z,98072.00
2019-01-13T12:40:16.276Z,98067.00
2019-01-13T12:42:21.403Z,98061.00
2019-01-13T12:44:26.413Z,98066.00
2019-01-13T12:46:31.453Z,98061.00
2019-01-13T12:48:36.494Z,98067.00
2019-01-13T12:50:41.618Z,98065.00
2019-01-13T12:52:46.591Z,98058.00
2019-01-13T12:54:51.813Z,98058.00
2019-01-13T12:56:56.782Z,98050.00
2019-01-13T12:59:01.733Z,98041.00
2019-01-13T13:01:06.715Z,98037.00
2019-01-13T13:03:11.669Z,98026.00
2019-01-13T13:05:17.084Z,98030.00
2019-01-13T13:07:22.101Z,98039.00
2019-01-13T13:09:26.998Z,98037.00
2019-01-13T13:11:31.886Z,98034.00
2019-01-13T13:13:36.836Z,98030.00
2019-01-13T13:15:41.977Z,98025.00
2019-01-13T13:17:46.939Z,98023.00
2019-01-13T13:19:52.280Z,98010.00
2019-01-13T13:21:57.339Z,98009.00
2019-01-13T13:24:02.306Z,98010.00
2019-01-13T13:26:07.526Z,98002.00
2019-01-13T13:28:12.671Z,97993.00
2019-01-13T13:30:21.359Z,97980.00
2019-01-13T13:32:26.348Z,97986.00
2019-01-13T13:34:31.311Z,97986.00
2019-01-13T13:36:36.623Z,97986.00
2019-01-13T13:38:44.038Z,97986.00
2019-01-13T13:40:49.149Z,97986.00
2019-01-13T13:42:54.495Z,97995.00
2019-01-13T13:44:59.758Z,97981.00
2019-01-13T13:47:05.211Z,97964.00
2019-01-13T13:49:10.277Z,97964.00
2019-01-13T13:51:15.928Z,97969.00
2019-01-13T13:53:20.945Z,97957.00
2019-01-13T13:55:26.316Z,97953.00
2019-01-13T13:57:31.332Z,97946.00
2019-01-13T13:59:36.197Z,97954.00
2019-01-13T14:01:41.234Z,97953.00
2019-01-13T14:03:46.324Z,97954.00
2019-01-13T14:05:52.695Z,97948.00
2019-01-13T14:07:58.589Z,97935.00
2019-01-13T14:10:05.282Z,97938.00
2019-01-13T14:12:10.812Z,97934.00
2019-01-13T14:14:18.108Z,97912.00
2019-01-13T14:16:23.852Z,97924.00
2019-01-13T14:18:29.262Z,97931.00
2019-01-13T14:20:34.679Z,97922.00
2019-01-13T14:22:40.812Z,97936.00
2019-01-13T14:24:47.078Z,97922.00
2019-01-13T14:26:52.669Z,97931.00
2019-01-13T14:28:58.392Z,97920.00
2019-01-13T14:31:04.280Z,97917.00
2019-01-13T14:33:10.052Z,97915.00
2019-01-13T14:35:16.045Z,97929.00
2019-01-13T14:37:21.222Z,97924.00
2019-01-13T14:39:26.240Z,97926.00
2019-01-13T14:41:31.394Z,97919.00
2019-01-13T14:43:36.377Z,97916.00
2019-01-13T14:45:41.499Z,97925.00
2019-01-13T14:47:46.763Z,97930.00
2019-01-13T14:49:52.284Z,97934.00
2019-01-13T14:51:57.355Z,97923.00
2019-01-13T14:54:02.516Z,97930.00
2019-01-13T14:56:07.646Z,97919.00
2019-01-13T14:58:12.779Z,97930.00
2019-01-13T15:00:27.166Z,97916.00
2019-01-13T15:02:32.164Z,97914.00
2019-01-13T15:04:37.208Z,97915.00
2019-01-13T15:06:42.298Z,97916.00
2019-01-13T15:08:47.359Z,97916.00
2019-01-13T15:10:52.327Z,97910.00
2019-01-13T15:12:57.447Z,97919.00
2019-01-13T15:15:02.390Z,97915.00
2019-01-13T15:17:07.509Z,97905.00
2019-01-13T15:19:12.480Z,97913.00
2019-01-13T15:21:17.441Z,97912.00
2019-01-13T15:23:22.571Z,97901.00
2019-01-13T15:25:30.641Z,97904.00
2019-01-13T15:27:35.725Z,97900.00
2019-01-13T15:29:40.708Z,97916.00
2019-01-13T15:31:45.921Z,97912.00
2019-01-13T15:33:51.010Z,97915.00
2019-01-13T15:35:56.011Z,97917.00
2019-01-13T15:38:01.367Z,97914.00
2019-01-13T15:40:10.524Z,97907.00
2019-01-13T15:42:15.472Z,97902.00
2019-01-13T15:44:20.685Z,97909.00
2019-01-13T15:46:25.788Z,97916.00
2019-01-13T15:48:30.766Z,97919.00
2019-01-13T15:50:35.911Z,97920.00
2019-01-13T15:52:41.113Z,97922.00
2019-01-13T15:54:46.315Z,97930.00
2019-01-13T15:56:51.791Z,97929.00
2019-01-13T15:58:56.849Z,97937.00
2019-01-13T16:01:01.842Z,97924.00
2019-01-13T16:03:09.227Z,97928.00
2019-01-13T16:05:14.397Z,97920.00
2019-01-13T16:07:19.360Z,97909.00
2019-01-13T16:09:24.375Z,97911.00
2019-01-13T16:11:29.268Z,97920.00
2019-01-13T16:13:34.606Z,97911.00
2019-01-13T16:15:39.688Z,97918.00
2019-01-13T16:17:45.019Z,97906.00
2019-01-13T16:19:50.079Z,97914.00
2019-01-13T16:21:55.218Z,97914.00
2019-01-13T16:24:00.418Z,97903.00
2019-01-13T16:26:05.874Z,97904.00
2019-01-13T16:28:11.022Z,97908.00
2019-01-13T16:30:19.782Z,97903.00
2019-01-13T16:32:27.409Z,97908.00
2019-01-13T16:34:32.468Z,97891.00
2019-01-13T16:36:37.684Z,97882.00
2019-01-13T16:38:42.602Z,97896.00
2019-01-13T16:40:47.509Z,97885.00
2019-01-13T16:42:52.621Z,97907.00
2019-01-13T16:44:57.594Z,97893.00
2019-01-13T16:47:02.906Z,97888.00
2019-01-13T16:49:07.854Z,97898.00
2019-01-13T16:51:12.838Z,97891.00
2019-01-13T16:53:18.047Z,97890.00
2019-01-13T16:55:24.739Z,97882.00
2019-01-13T16:57:29.710Z,97873.00
2019-01-13T16:59:34.810Z,97880.00
2019-01-13T17:01:39.787Z,97848.00
2019-01-13T17:03:44.849Z,97869.00
2019-01-13T17:05:49.926Z,97866.00
2019-01-13T17:07:55.055Z,97879.00
2019-01-13T17:09:59.990Z,97851.00
2019-01-13T17:12:05.014Z,97866.00
2019-01-13T17:14:09.964Z,97852.00
2019-01-13T17:16:14.860Z,97853.00
2019-01-13T17:18:19.751Z,97854.00
2019-01-13T17:20:24.878Z,97847.00
2019-01-13T17:22:29.889Z,97850.00
2019-01-13T17:24:34.844Z,97852.00
2019-01-13T17:26:39.848Z,97849.00
2019-01-13T17:28:44.969Z,97840.00
2019-01-13T17:30:50.899Z,97850.00
2019-01-13T17:32:59.044Z,97844.00
2019-01-13T17:35:05.032Z,97830.00
2019-01-13T17:37:10.284Z,97816.00
2019-01-13T17:39:15.244Z,97812.00
2019-01-13T17:41:20.162Z,97818.00
2019-01-13T17:43:25.418Z,97807.00
2019-01-13T17:45:32.910Z,97812.00
2019-01-13T17:47:37.872Z,97817.00
2019-01-13T17:49:42.957Z,97799.00
2019-01-13T17:51:47.941Z,97809.00
2019-01-13T17:53:52.976Z,97797.00
2019-01-13T17:55:58.121Z,97818.00
2019-01-13T17:58:03.146Z,97815.00
2019-01-13T18:00:46.537Z,97795.00
2019-01-13T18:02:52.012Z,97815.00
2019-01-13T18:04:57.231Z,97811.00
2019-01-13T18:07:02.136Z,97812.00
2019-01-13T18:09:09.528Z,97811.00
2019-01-13T18:11:14.774Z,97868.00
2019-01-13T18:13:19.755Z,97867.00
2019-01-13T18:15:24.851Z,97868.00
2019-01-13T18:17:30.745Z,97853.00
2019-01-13T18:19:35.726Z,97863.00
2019-01-13T18:21:40.786Z,97860.00
2019-01-13T18:23:45.858Z,97866.00
2019-01-13T18:25:50.955Z,97880.00
2019-01-13T18:27:55.947Z,97882.00
2019-01-13T18:30:01.387Z,97888.00
2019-01-13T18:32:06.459Z,97882.00
2019-01-13T18:34:11.763Z,97900.00
2019-01-13T18:36:17.048Z,97887.00
2019-01-13T18:38:22.195Z,97901.00
2019-01-13T18:40:27.387Z,97895.00
2019-01-13T18:42:32.300Z,97902.00
2019-01-13T18:44:37.998Z,97904.00
2019-01-13T18:46:43.050Z,97903.00
2019-01-13T18:48:48.061Z,97905.00
2019-01-13T18:50:53.454Z,97891.00
2019-01-13T18:53:04.129Z,97899.00
2019-01-13T18:55:09.610Z,97904.00
2019-01-13T18:57:14.592Z,97899.00
2019-01-13T18:59:19.699Z,97889.00
2019-01-13T19:01:24.723Z,97905.00
2019-01-13T19:03:29.798Z,97894.00
2019-01-13T19:05:34.821Z,97888.00
2019-01-13T19:07:40.233Z,97896.00
2019-01-13T19:09:45.209Z,97895.00
2019-01-13T19:11:53.317Z,97903.00
2019-01-13T19:14:38.817Z,97903.00
2019-01-13T19:17:11.130Z,97899.00
2019-01-13T19:19:16.022Z,97901.00
2019-01-13T19:21:21.792Z,97907.00
2019-01-13T19:23:28.570Z,97899.00
2019-01-13T19:25:35.472Z,97902.00
2019-01-13T19:27:40.367Z,97903.00
2019-01-13T19:29:45.678Z,97917.00
2019-01-13T19:31:50.710Z,97910.00
2019-01-13T19:33:56.126Z,97902.00
2019-01-13T19:36:01.191Z,97920.00
2019-01-13T19:38:06.617Z,97914.00
2019-01-13T19:40:14.377Z,97914.00
2019-01-13T19:42:19.670Z,97917.00
2019-01-13T19:44:25.059Z,97911.00
2019-01-13T19:46:29.972Z,97914.00
2019-01-13T19:48:34.969Z,97920.00
2019-01-13T19:50:40.073Z,97918.00
2019-01-13T19:52:45.256Z,97913.00
2019-01-13T19:54:50.237Z,97925.00
2019-01-13T19:56:55.178Z,97917.00
2019-01-13T19:59:00.172Z,97933.00
2019-01-13T20:01:05.344Z,97929.00
2019-01-13T20:03:10.496Z,97932.00
2019-01-13T20:05:15.601Z,97933.00
2019-01-13T20:07:20.690Z,97923.00
2019-01-13T20:09:25.741Z,97933.00
2019-01-13T20:11:30.818Z,97924.00
2019-01-13T20:13:35.872Z,97928.00
2019-01-13T20:15:41.017Z,97928.00
2019-01-13T20:17:46.052Z,97926.00
2019-01-13T20:19:51.140Z,97929.00
2019-01-13T20:21:56.552Z,97932.00
2019-01-13T20:24:01.613Z,97925.00
2019-01-13T20:26:06.779Z,97926.00
2019-01-13T20:28:11.864Z,97934.00
2019-01-13T20:30:23.438Z,97924.00
2019-01-13T20:32:28.576Z,97928.00
2019-01-13T20:34:33.647Z,97924.00
2019-01-13T20:36:38.639Z,97944.00
2019-01-13T20:38:43.699Z,97949.00
2019-01-13T20:40:49.097Z,97946.00
2019-01-13T20:42:54.541Z,97952.00
2019-01-13T20:44:59.880Z,97951.00
2019-01-13T20:47:05.028Z,97951.00
2019-01-13T20:49:10.013Z,97952.00
2019-01-13T20:51:15.343Z,97956.00
2019-01-13T20:53:20.630Z,97954.00
2019-01-13T20:55:25.695Z,97956.00
2019-01-13T20:57:31.012Z,97960.00
2019-01-13T20:59:38.981Z,97947.00
2019-01-13T21:01:43.930Z,97958.00
2019-01-13T21:03:48.896Z,97958.00
2019-01-13T21:05:54.043Z,97962.00
2019-01-13T21:07:59.350Z,97970.00
2019-01-13T21:10:06.267Z,97973.00
2019-01-13T21:12:11.750Z,97983.00
2019-01-13T21:14:16.724Z,97963.00
2019-01-13T21:16:21.929Z,97960.00
2019-01-13T21:18:26.959Z,97960.00
2019-01-13T21:20:32.012Z,97982.00
2019-01-13T21:22:37.123Z,97975.00
2019-01-13T21:24:42.110Z,97967.00
2019-01-13T21:26:47.183Z,97973.00
2019-01-13T21:28:52.275Z,97986.00
2019-01-13T21:30:57.415Z,97981.00
2019-01-13T21:33:02.606Z,97983.00
2019-01-13T21:35:08.602Z,97989.00
2019-01-13T21:37:13.646Z,97987.00
2019-01-13T21:39:18.614Z,97996.00
2019-01-13T21:41:23.676Z,97990.00
2019-01-13T21:43:28.601Z,98005.00
2019-01-13T21:45:33.661Z,98005.00
2019-01-13T21:47:38.703Z,98000.00
2019-01-13T21:49:43.752Z,97994.00
2019-01-13T21:51:48.699Z,98004.00
2019-01-13T21:53:53.754Z,98001.00
2019-01-13T21:55:58.681Z,98010.00
2019-01-13T21:58:04.370Z,98018.00
2019-01-13T22:00:15.358Z,98014.00
2019-01-13T22:02:20.587Z,98028.00
2019-01-13T22:04:25.626Z,98026.00
2019-01-13T22:06:30.669Z,98036.00
2019-01-13T22:08:35.667Z,98036.00
2019-01-13T22:10:40.758Z,98033.00
2019-01-13T22:12:45.966Z,98022.00
2019-01-13T22:14:50.920Z,98026.00
2019-01-13T22:16:56.131Z,98039.00
2019-01-13T22:19:01.159Z,98039.00
2019-01-13T22:21:06.312Z,98030.00
2019-01-13T22:23:11.288Z,98033.00
2019-01-13T22:25:16.820Z,98041.00
2019-01-13T22:27:21.755Z,98038.00
2019-01-13T22:29:26.670Z,98044.00
2019-01-13T22:31:31.634Z,98049.00
2019-01-13T22:33:36.596Z,98049.00
2019-01-13T22:35:47.913Z,98055.00
2019-01-13T22:37:55.274Z,98045.00
2019-01-13T22:39:55.266Z,98051.00
2019-01-13T22:42:00.592Z,98040.00
2019-01-13T22:44:05.925Z,98051.00
2019-01-13T22:46:10.963Z,98051.00
2019-01-13T22:48:15.981Z,98051.00
2019-01-13T22:50:21.368Z,98057.00
2019-01-13T22:52:26.427Z,98059.00
2019-01-13T22:54:31.625Z,98057.00
2019-01-13T22:56:36.613Z,98054.00
2019-01-13T22:58:41.830Z,98048.00
2019-01-13T23:01:29.401Z,98070.00
2019-01-13T23:03:34.451Z,98055.00
2019-01-13T23:05:39.501Z,98058.00
2019-01-13T23:07:44.633Z,98052.00
2019-01-13T23:09:49.598Z,98054.00
2019-01-13T23:11:54.694Z,98062.00
2019-01-13T23:13:59.637Z,98063.00
2019-01-13T23:16:04.907Z,98054.00
2019-01-13T23:18:09.862Z,98054.00
2019-01-13T23:20:15.110Z,98057.00
2019-01-13T23:22:20.334Z,98057.00
2019-01-13T23:24:25.224Z,98055.00
2019-01-13T23:26:30.646Z,98072.00
2019-01-13T23:28:35.972Z,98064.00
2019-01-13T23:30:40.918Z,98070.00
2019-01-13T23:32:45.890Z,98087.00
2019-01-13T23:34:51.158Z,98092.00
2019-01-13T23:36:56.100Z,98113.00
2019-01-13T23:39:01.093Z,98104.00
2019-01-13T23:41:06.122Z,98095.00
2019-01-13T23:43:11.557Z,98095.00
2019-01-13T23:45:16.772Z,98092.00
2019-01-13T23:47:21.813Z,98099.00
2019-01-13T23:49:26.941Z,98108.00
2019-01-13T23:51:31.905Z,98105.00
2019-01-13T23:53:36.886Z,98100.00
2019-01-13T23:55:42.007Z,98117.00
2019-01-13T23:57:47.042Z,98127.00
2019-01-13T23:59:52.056Z,98113.00
